Time;durP1;ratioP1;P1;durP2;ratioP2;P2;SDS_P1;SDS_P2;PMS_P1;PMS_P2;Temp;Humidity;BMP_temperature;BMP_pressure;BME280_temperature;BME280_humidity;BME280_pressure;Samples;Min_cycle;Max_cycle;Signal;HPM_P1;HPM_P2
2021/08/14 00:02:08;;;;;;;22.20;5.38;;;;;;;16.58;80.88;102266.59;5013592;28;20092;-64
2021/08/14 00:04:34;;;;;;;19.52;4.82;;;;;;;16.61;81.20;102268.25;5012799;28;20018;-64
2021/08/14 00:06:59;;;;;;;21.27;5.35;;;;;;;16.64;81.06;102258.28;5012780;28;20021;-65
2021/08/14 00:09:24;;;;;;;19.45;4.75;;;;;;;16.68;80.49;102256.31;5013680;28;20038;-65
2021/08/14 00:11:50;;;;;;;21.73;5.72;;;;;;;16.66;81.06;102258.19;5013847;28;20030;-65
2021/08/14 00:14:15;;;;;;;21.08;4.93;;;;;;;16.64;81.17;102255.59;5013130;28;20491;-66
2021/08/14 00:16:41;;;;;;;20.25;5.60;;;;;;;16.63;80.92;102261.88;5012328;28;20060;-66
2021/08/14 00:19:06;;;;;;;19.48;4.32;;;;;;;16.62;81.64;102265.50;5013517;28;20084;-65
2021/08/14 00:21:31;;;;;;;26.58;5.22;;;;;;;16.59;81.38;102265.66;5012586;28;20032;-65
2021/08/14 00:23:57;;;;;;;21.48;4.72;;;;;;;16.58;81.47;102263.06;5013692;28;20480;-65
2021/08/14 00:26:22;;;;;;;21.85;5.40;;;;;;;16.57;81.78;102275.53;5012610;28;20037;-66
2021/08/14 00:28:47;;;;;;;17.20;4.90;;;;;;;16.58;81.43;102265.72;5013836;28;20018;-65
2021/08/14 00:31:13;;;;;;;18.88;5.15;;;;;;;16.56;82.10;102268.47;5012500;28;20034;-65
2021/08/14 00:33:38;;;;;;;23.75;5.50;;;;;;;16.52;82.24;102254.38;5013383;28;20037;-65
2021/08/14 00:36:04;;;;;;;28.02;5.75;;;;;;;16.52;81.77;102259.75;5012257;28;20030;-65
2021/08/14 00:38:29;;;;;;;21.80;5.68;;;;;;;16.55;82.09;102250.69;5012055;28;20063;-65
2021/08/14 00:40:54;;;;;;;22.73;4.80;;;;;;;16.54;82.08;102254.31;5013631;28;20087;-66
2021/08/14 00:43:21;;;;;;;21.33;5.43;;;;;;;16.54;82.06;102247.13;4994763;28;20137;-64
2021/08/14 00:45:46;;;;;;;21.73;5.78;;;;;;;16.51;82.73;102249.13;5017193;28;20101;-66
2021/08/14 00:48:12;;;;;;;24.88;5.22;;;;;;;16.51;82.65;102246.44;5032082;28;20041;-64
2021/08/14 00:50:38;;;;;;;21.17;5.30;;;;;;;16.51;82.76;102243.78;5030133;28;20057;-65
2021/08/14 00:53:06;;;;;;;26.65;5.72;;;;;;;16.54;82.70;102247.13;5030199;28;20467;-64
2021/08/14 00:55:31;;;;;;;19.83;5.00;;;;;;;16.52;82.54;102250.81;5029027;28;20025;-64
2021/08/14 00:57:57;;;;;;;18.85;4.97;;;;;;;16.52;83.06;102242.81;5023163;28;20479;-65
2021/08/14 01:00:23;;;;;;;26.00;5.30;;;;;;;16.52;82.73;102256.19;5013121;28;20034;-65
2021/08/14 01:02:49;;;;;;;20.42;4.82;;;;;;;16.55;83.18;102256.03;5012051;28;20104;-65
2021/08/14 01:05:17;;;;;;;20.00;5.05;;;;;;;16.54;83.04;102241.78;5016681;28;20061;-65
2021/08/14 01:07:43;;;;;;;23.65;4.80;;;;;;;16.59;83.14;102246.06;5031198;28;20045;-65
2021/08/14 01:10:09;;;;;;;23.30;5.35;;;;;;;16.55;82.93;102240.00;5032271;28;20033;-66
2021/08/14 01:12:35;;;;;;;17.73;4.97;;;;;;;16.55;83.01;102240.84;5031645;28;20112;-65
2021/08/14 01:15:01;;;;;;;25.67;5.43;;;;;;;16.54;83.10;102232.91;5031860;28;20626;-65
2021/08/14 01:17:27;;;;;;;25.63;5.22;;;;;;;16.57;83.27;102239.91;5027820;28;20045;-65
2021/08/14 01:19:52;;;;;;;23.63;5.53;;;;;;;16.60;83.20;102240.66;5031909;28;20032;-66
2021/08/14 01:22:18;;;;;;;20.95;5.38;;;;;;;16.60;83.05;102234.41;5010189;28;20043;-63
2021/08/14 01:24:44;;;;;;;19.48;5.07;;;;;;;16.63;83.26;102231.59;5031559;28;20056;-65
2021/08/14 01:27:10;;;;;;;24.58;5.53;;;;;;;16.68;83.43;102229.59;5031671;28;20037;-64
2021/08/14 01:29:37;;;;;;;23.42;5.28;;;;;;;16.69;83.01;102229.50;5031475;28;20471;-65
2021/08/14 01:32:04;;;;;;;28.33;5.00;;;;;;;16.73;83.33;102232.00;5029713;28;20099;-65
2021/08/14 01:34:29;;;;;;;22.00;5.68;;;;;;;16.73;83.05;102221.31;5029326;28;20022;-65
2021/08/14 01:36:55;;;;;;;21.70;5.13;;;;;;;16.74;83.02;102223.06;5031354;28;20056;-65
2021/08/14 01:39:20;;;;;;;19.95;4.95;;;;;;;16.74;82.91;102218.59;5031502;28;20029;-65
2021/08/14 01:42:12;;;;;;;19.40;5.13;;;;;;;16.75;83.02;102214.09;5024696;28;20026;-65
2021/08/14 01:44:37;;;;;;;20.35;5.10;;;;;;;16.76;83.03;102211.34;5016863;28;20045;-66
2021/08/14 01:47:05;;;;;;;21.23;5.20;;;;;;;16.77;83.04;102214.91;5031001;28;20033;-66
2021/08/14 01:49:30;;;;;;;24.45;4.93;;;;;;;16.76;83.11;102216.69;5031016;28;20144;-66
2021/08/14 01:51:55;;;;;;;21.65;5.22;;;;;;;16.77;82.95;102217.56;5031191;28;20097;-65
2021/08/14 01:54:21;;;;;;;22.27;5.50;;;;;;;16.78;83.21;102216.63;5028749;28;20021;-64
2021/08/14 01:56:48;;;;;;;18.45;4.85;;;;;;;16.77;83.42;102206.88;5031416;28;20505;-65
2021/08/14 01:59:13;;;;;;;20.80;4.80;;;;;;;16.79;83.33;102205.84;5031063;28;20032;-65
2021/08/14 02:01:39;;;;;;;21.25;5.28;;;;;;;16.77;83.36;102209.53;5031653;28;20030;-66
2021/08/14 02:04:05;;;;;;;21.33;5.55;;;;;;;16.77;83.43;102207.72;5029671;28;20051;-66
2021/08/14 02:06:31;;;;;;;22.58;5.35;;;;;;;16.76;83.23;102200.63;5029709;28;20463;-65
2021/08/14 02:08:56;;;;;;;23.08;5.63;;;;;;;16.76;83.69;102203.31;5014019;28;20045;-65
2021/08/14 02:11:33;;;;;;;20.95;5.15;;;;;;;16.78;83.46;102206.78;5031815;28;20026;-66
2021/08/14 02:13:58;;;;;;;24.75;5.90;;;;;;;16.81;83.28;102203.09;5025268;28;20102;-66
2021/08/14 02:16:25;;;;;;;19.60;4.97;;;;;;;16.79;83.55;102203.19;5022722;28;20088;-65
2021/08/14 02:18:50;;;;;;;27.23;6.07;;;;;;;16.82;83.94;102199.47;5031497;28;20060;-64
2021/08/14 02:21:16;;;;;;;23.55;5.75;;;;;;;16.84;83.46;102190.44;5034423;28;20060;-64
2021/08/14 02:23:41;;;;;;;21.30;5.30;;;;;;;16.87;83.47;102194.78;5032774;28;20037;-65
2021/08/14 02:26:07;;;;;;;17.48;4.78;;;;;;;16.87;83.18;102195.63;5028666;28;20069;-64
2021/08/14 02:28:33;;;;;;;22.95;5.75;;;;;;;16.87;83.46;102197.44;5033188;28;20029;-65
2021/08/14 02:30:59;;;;;;;21.23;5.30;;;;;;;16.85;83.47;102199.31;5017189;28;20039;-66
2021/08/14 02:33:25;;;;;;;25.48;5.93;;;;;;;16.86;82.97;102195.72;5035010;28;20517;-65
2021/08/14 02:35:50;;;;;;;22.50;6.10;;;;;;;16.83;83.36;102188.69;5029818;28;20037;-64
2021/08/14 02:38:16;;;;;;;26.15;6.25;;;;;;;16.84;83.69;102187.75;5015458;28;20104;-64
2021/08/14 02:40:42;;;;;;;23.88;6.63;;;;;;;16.81;83.31;102181.69;5014728;28;20030;-64
2021/08/14 02:43:07;;;;;;;27.98;8.40;;;;;;;16.81;83.32;102187.03;5014551;28;20057;-64
2021/08/14 02:45:33;;;;;;;23.60;7.18;;;;;;;16.81;83.42;102187.03;5015600;28;20025;-65
2021/08/14 02:48:00;;;;;;;27.25;7.30;;;;;;;16.79;83.65;102181.78;5015270;28;20391;-65
2021/08/14 02:50:27;;;;;;;26.92;7.35;;;;;;;16.76;84.09;102184.59;5014142;28;20116;-63
2021/08/14 02:52:52;;;;;;;28.13;7.55;;;;;;;16.78;83.92;102179.19;5013521;28;20395;-65
2021/08/14 02:55:17;;;;;;;21.88;7.20;;;;;;;16.79;84.18;102188.91;5015633;28;20036;-66
2021/08/14 02:57:42;;;;;;;27.05;7.65;;;;;;;16.80;84.02;102188.88;5014618;28;20021;-65
2021/08/14 03:00:09;;;;;;;21.33;6.28;;;;;;;16.78;83.85;102188.06;5016653;28;20037;-65
2021/08/14 03:02:34;;;;;;;31.33;6.95;;;;;;;16.80;84.19;102187.97;5034275;28;20073;-65
2021/08/14 03:05:00;;;;;;;36.92;7.32;;;;;;;16.76;84.26;102187.25;5033926;28;20422;-65
2021/08/14 03:07:25;;;;;;;27.38;6.43;;;;;;;16.81;83.96;102184.38;5031846;28;20041;-65
2021/08/14 03:09:50;;;;;;;24.65;5.97;;;;;;;16.77;84.01;102183.66;5032403;28;20533;-66
2021/08/14 03:12:15;;;;;;;27.20;6.88;;;;;;;16.75;83.80;102182.84;5016331;28;20120;-66
2021/08/14 03:14:41;;;;;;;27.23;6.35;;;;;;;16.76;84.33;102187.25;5033522;28;20108;-65
2021/08/14 03:17:06;;;;;;;22.42;5.57;;;;;;;16.76;84.54;102192.59;5032267;28;20120;-65
2021/08/14 03:19:32;;;;;;;27.58;6.63;;;;;;;16.76;84.43;102189.09;5032467;28;20021;-65
2021/08/14 03:21:58;;;;;;;26.25;6.55;;;;;;;16.71;84.61;102189.28;5033673;28;20494;-65
2021/08/14 03:24:24;;;;;;;26.02;5.78;;;;;;;16.68;84.62;102186.78;5034072;28;20025;-65
2021/08/14 03:26:50;;;;;;;15.98;5.72;;;;;;;16.70;84.44;102184.88;5028216;28;20030;-66
2021/08/14 03:29:16;;;;;;;22.15;6.32;;;;;;;16.71;84.61;102189.28;5014414;28;20022;-66
2021/08/14 03:31:41;;;;;;;22.23;6.57;;;;;;;16.71;83.98;102184.84;5014989;28;20040;-63
2021/08/14 03:34:07;;;;;;;22.17;6.28;;;;;;;16.68;84.60;102176.09;5013487;28;20076;-64
2021/08/14 03:36:32;;;;;;;32.88;7.00;;;;;;;16.66;84.52;102176.16;5014739;28;20029;-65
2021/08/14 03:38:58;;;;;;;27.73;6.70;;;;;;;16.62;85.27;102177.25;5013910;28;20033;-65
2021/08/14 03:41:23;;;;;;;24.10;6.07;;;;;;;16.63;84.96;102175.44;5014996;28;20380;-65
2021/08/14 03:43:48;;;;;;;25.23;7.15;;;;;;;16.62;84.92;102173.72;5013832;28;20498;-65
2021/08/14 03:46:14;;;;;;;22.27;6.43;;;;;;;16.61;84.91;102170.19;5014063;28;20061;-65
2021/08/14 03:48:39;;;;;;;28.95;6.57;;;;;;;16.57;85.32;102165.03;5014885;28;20076;-65
2021/08/14 03:51:04;;;;;;;23.08;6.10;;;;;;;16.51;85.75;102171.56;5013825;28;20017;-65
2021/08/14 03:53:31;;;;;;;26.42;6.15;;;;;;;16.51;86.00;102174.25;5014640;28;20056;-65
2021/08/14 03:55:57;;;;;;;27.70;7.15;;;;;;;16.48;85.73;102161.00;5013788;28;20025;-66
2021/08/14 03:58:22;;;;;;;27.45;7.45;;;;;;;16.45;85.93;102167.38;5014613;28;20030;-65
2021/08/14 04:00:47;;;;;;;22.70;6.28;;;;;;;16.44;86.31;102165.63;5018929;28;20017;-65
2021/08/14 04:03:12;;;;;;;22.05;6.03;;;;;;;16.41;85.83;102167.59;5031989;28;20488;-66
2021/08/14 04:05:38;;;;;;;23.38;6.10;;;;;;;16.36;86.45;102159.81;5032709;28;20021;-65
2021/08/14 04:08:03;;;;;;;28.17;7.05;;;;;;;16.30;86.49;102160.94;5031538;28;20084;-65
2021/08/14 04:10:29;;;;;;;33.40;7.05;;;;;;;16.25;86.36;102171.00;5032014;28;20048;-64
2021/08/14 04:12:54;;;;;;;33.42;6.22;;;;;;;16.19;86.69;102174.84;5030680;28;20017;-64
2021/08/14 04:15:19;;;;;;;28.10;6.50;;;;;;;16.17;87.44;102166.00;5032119;28;20033;-64
2021/08/14 04:17:45;;;;;;;28.42;6.72;;;;;;;16.14;87.10;102175.97;5014562;28;20112;-64
2021/08/14 04:20:11;;;;;;;22.58;6.90;;;;;;;16.10;87.50;102169.94;5032158;28;20025;-65
2021/08/14 04:22:36;;;;;;;26.73;6.85;;;;;;;16.11;87.29;102173.47;5032521;28;20033;-66
2021/08/14 04:25:04;;;;;;;25.40;6.15;;;;;;;16.10;87.13;102169.06;5030242;28;20139;-64
2021/08/14 04:27:30;;;;;;;32.97;7.18;;;;;;;16.05;87.58;102170.13;5031926;28;20120;-65
2021/08/14 04:29:55;;;;;;;28.80;6.95;;;;;;;16.02;87.63;102161.41;5030969;28;20101;-65
2021/08/14 04:32:20;;;;;;;25.17;6.80;;;;;;;15.98;87.37;102157.16;5032236;28;20087;-65
2021/08/14 04:34:46;;;;;;;21.55;6.43;;;;;;;15.98;87.22;102163.34;5030375;28;20021;-65
2021/08/14 04:37:13;;;;;;;23.65;6.20;;;;;;;15.94;87.00;102174.25;5032103;28;20056;-64
2021/08/14 04:39:39;;;;;;;28.42;7.00;;;;;;;15.91;86.84;102172.59;5030692;28;20030;-65
2021/08/14 04:42:04;;;;;;;25.83;6.13;;;;;;;15.86;86.38;102159.44;5023723;28;20034;-65
2021/08/14 04:44:30;;;;;;;18.83;6.40;;;;;;;15.83;86.46;102161.38;5012703;28;20029;-64
2021/08/14 04:46:55;;;;;;;24.23;6.72;;;;;;;15.81;86.73;102160.56;5027245;28;20080;-65
2021/08/14 04:49:20;;;;;;;22.38;5.97;;;;;;;15.79;86.18;102165.09;5032709;28;20533;-65
2021/08/14 04:51:46;;;;;;;17.58;6.32;;;;;;;15.78;86.98;102169.59;5030876;28;20033;-65
2021/08/14 04:54:11;;;;;;;22.52;6.53;;;;;;;15.81;86.49;102166.81;5032215;28;20032;-66
2021/08/14 04:56:37;;;;;;;27.77;7.03;;;;;;;15.84;85.79;102164.00;5030812;28;20033;-66
2021/08/14 04:59:02;;;;;;;28.60;6.20;;;;;;;15.86;85.38;102158.59;5032301;28;20079;-65
2021/08/14 05:01:28;;;;;;;24.35;7.07;;;;;;;15.91;85.18;102166.38;5030322;28;20029;-65
2021/08/14 05:03:53;;;;;;;23.70;6.55;;;;;;;15.91;85.53;102175.28;5031760;28;20021;-65
2021/08/14 05:06:18;;;;;;;26.23;7.43;;;;;;;15.89;85.17;102164.66;5028309;28;20028;-65
2021/08/14 05:08:43;;;;;;;22.15;6.50;;;;;;;15.93;85.05;102167.19;5011723;28;20049;-66
2021/08/14 05:11:09;;;;;;;20.38;6.65;;;;;;;15.92;84.80;102166.31;5012466;28;20502;-65
2021/08/14 05:13:34;;;;;;;19.42;7.03;;;;;;;15.89;84.98;102163.78;5011729;28;20084;-66
2021/08/14 05:16:00;;;;;;;25.40;7.25;;;;;;;15.85;85.25;102162.19;5011597;28;20359;-65
2021/08/14 05:18:25;;;;;;;26.98;6.57;;;;;;;15.82;85.17;102154.28;5013185;28;20029;-65
2021/08/14 05:20:50;;;;;;;22.95;6.72;;;;;;;15.81;85.28;102157.91;5012343;28;20026;-64
2021/08/14 05:23:15;;;;;;;24.17;6.68;;;;;;;15.84;85.01;102165.78;5013256;28;20068;-65
2021/08/14 05:25:41;;;;;;;21.30;6.85;;;;;;;15.91;85.13;102159.25;5011831;28;20018;-66
2021/08/14 05:28:06;;;;;;;25.67;7.28;;;;;;;15.94;85.27;102167.09;5013134;28;20361;-65
2021/08/14 05:30:31;;;;;;;23.73;6.85;;;;;;;16.08;84.64;102174.47;5012122;28;20480;-65
2021/08/14 05:32:57;;;;;;;18.73;7.28;;;;;;;16.27;84.16;102170.94;5013501;28;20026;-65
2021/08/14 05:35:22;;;;;;;25.70;7.20;;;;;;;16.45;83.76;102174.53;5012110;28;20072;-67
2021/08/14 05:37:48;;;;;;;18.55;7.35;;;;;;;16.62;82.98;102184.41;5022152;28;20033;-66
2021/08/14 05:40:13;;;;;;;24.73;7.07;;;;;;;16.66;82.51;102189.53;5031098;28;20033;-66
2021/08/14 05:42:39;;;;;;;24.92;7.47;;;;;;;16.73;82.26;102186.53;5030104;28;20100;-65
2021/08/14 05:45:05;;;;;;;35.90;9.07;;;;;;;16.80;81.83;102182.63;5032007;28;20022;-66
2021/08/14 05:47:31;;;;;;;26.65;7.72;;;;;;;16.76;82.21;102168.53;5030751;28;20471;-65
2021/08/14 05:49:56;;;;;;;25.52;8.32;;;;;;;16.74;82.26;102169.56;5030507;28;20109;-65
2021/08/14 05:52:23;;;;;;;30.02;8.55;;;;;;;16.73;82.32;102181.19;5027437;28;20033;-65
2021/08/14 05:54:48;;;;;;;25.08;8.57;;;;;;;16.73;82.53;102182.06;5022403;28;20025;-65
2021/08/14 05:57:13;;;;;;;28.05;9.63;;;;;;;16.73;82.17;102171.38;5035409;28;20033;-65
2021/08/14 05:59:39;;;;;;;32.65;10.05;;;;;;;16.82;82.62;102167.38;5021080;28;20045;-65
2021/08/14 06:02:04;;;;;;;26.10;8.93;;;;;;;16.96;82.59;102180.94;5035587;28;20100;-64
2021/08/14 06:04:29;;;;;;;26.80;8.10;;;;;;;17.10;81.60;102176.72;5034637;28;20049;-66
2021/08/14 06:06:55;;;;;;;29.02;8.75;;;;;;;17.16;80.86;102171.91;5034844;28;20022;-65
2021/08/14 06:09:20;;;;;;;27.77;9.25;;;;;;;17.23;80.35;102172.47;5031675;28;20052;-65
2021/08/14 06:11:45;;;;;;;25.98;9.00;;;;;;;17.26;80.92;102172.28;5029720;28;20044;-65
2021/08/14 06:14:11;;;;;;;27.13;8.63;;;;;;;17.25;80.91;102175.03;5021578;28;20083;-65
2021/08/14 06:16:36;;;;;;;30.27;8.80;;;;;;;17.33;80.67;102176.38;5012221;28;20022;-63
2021/08/14 06:19:02;;;;;;;31.02;9.30;;;;;;;17.41;80.33;102169.78;5011738;28;20041;-63
2021/08/14 06:21:27;;;;;;;23.60;8.38;;;;;;;17.44;80.46;102169.59;5018175;28;20028;-63
2021/08/14 06:23:52;;;;;;;28.65;8.98;;;;;;;17.60;80.28;102167.00;5026995;28;20042;-64
2021/08/14 06:26:18;;;;;;;26.58;9.18;;;;;;;17.70;79.81;102168.22;5036300;28;20458;-65
2021/08/14 06:28:43;;;;;;;27.98;9.50;;;;;;;17.79;79.60;102170.41;5025728;28;20112;-65
2021/08/14 06:31:08;;;;;;;25.63;8.88;;;;;;;17.90;79.24;102185.88;5027584;28;20025;-65
2021/08/14 06:33:33;;;;;;;33.65;9.43;;;;;;;17.92;79.68;102180.47;5029560;28;20041;-64
2021/08/14 06:35:59;;;;;;;26.10;9.90;;;;;;;18.04;79.06;102192.34;5029280;28;20394;-65
2021/08/14 06:38:24;;;;;;;30.05;10.13;;;;;;;18.20;78.63;102193.22;4996292;28;20049;-65
2021/08/14 06:40:49;;;;;;;32.22;10.27;;;;;;;18.39;78.59;102194.88;5023802;28;20216;-65
2021/08/14 06:43:15;;;;;;;30.30;10.70;;;;;;;18.59;77.73;102199.09;5031466;28;20128;-65
2021/08/14 06:45:41;;;;;;;33.08;11.70;;;;;;;18.63;76.90;102204.22;5025921;28;20096;-64
2021/08/14 06:48:06;;;;;;;33.83;10.43;;;;;;;18.48;77.64;102213.16;5027330;28;20025;-64
2021/08/14 06:50:32;;;;;;;32.33;11.23;;;;;;;18.57;77.18;102215.28;5030905;28;20418;-65
2021/08/14 06:52:57;;;;;;;35.22;10.93;;;;;;;18.60;77.37;102215.09;5030923;28;20049;-65
2021/08/14 06:55:22;;;;;;;35.50;11.30;;;;;;;18.66;76.99;102208.53;5026423;28;20048;-63
2021/08/14 06:57:48;;;;;;;28.42;11.35;;;;;;;18.56;77.00;102208.19;5030195;28;20036;-65
2021/08/14 07:00:14;;;;;;;34.38;11.30;;;;;;;18.62;77.48;102202.47;5022030;28;20025;-65
2021/08/14 07:02:42;;;;;;;33.78;10.65;;;;;;;18.82;76.56;102212.06;5030123;28;20026;-65
2021/08/14 07:05:09;;;;;;;31.02;10.98;;;;;;;18.94;75.58;102212.31;5026032;28;20026;-65
2021/08/14 07:07:34;;;;;;;28.15;10.75;;;;;;;18.87;76.09;102202.88;5018709;28;20044;-65
2021/08/14 07:10:05;;;;;;;28.17;11.10;;;;;;;18.80;76.70;102202.38;5046519;28;20033;-66
2021/08/14 07:12:31;;;;;;;28.17;11.23;;;;;;;18.72;76.92;102207.31;5048503;28;20029;-66
2021/08/14 07:14:56;;;;;;;32.33;10.88;;;;;;;18.78;77.03;102206.97;5030532;28;20017;-66
2021/08/14 07:17:22;;;;;;;33.15;12.05;;;;;;;18.86;76.40;102199.31;5023883;28;20436;-65
2021/08/14 07:19:47;;;;;;;33.15;11.15;;;;;;;18.87;76.29;102198.38;5023077;28;20032;-66
2021/08/14 07:22:13;;;;;;;36.70;12.63;;;;;;;18.86;76.23;102202.00;5028893;28;20029;-65
2021/08/14 07:24:38;;;;;;;28.15;11.68;;;;;;;19.03;75.67;102198.38;5027629;28;20029;-64
2021/08/14 07:27:04;;;;;;;26.65;11.35;;;;;;;19.19;75.46;102201.00;5027122;28;20026;-64
2021/08/14 07:29:29;;;;;;;25.88;11.18;;;;;;;19.38;74.42;102197.22;5030370;28;20025;-65
2021/08/14 07:31:55;;;;;;;29.00;11.98;;;;;;;19.44;73.78;102197.72;5030781;28;20032;-65
2021/08/14 07:34:20;;;;;;;32.67;10.95;;;;;;;19.54;73.58;102197.13;5005151;28;20045;-66
2021/08/14 07:36:45;;;;;;;35.45;11.18;;;;;;;19.56;73.69;102189.84;5013546;28;20455;-65
2021/08/14 07:39:11;;;;;;;26.38;11.48;;;;;;;19.62;73.27;102203.78;5005136;28;20038;-66
2021/08/14 07:41:36;;;;;;;31.67;11.85;;;;;;;19.61;73.00;102199.34;5026137;28;20056;-66
2021/08/14 07:44:01;;;;;;;30.25;12.25;;;;;;;19.49;73.53;102192.91;5026195;28;20029;-65
2021/08/14 07:46:27;;;;;;;34.03;12.40;;;;;;;19.40;74.27;102203.34;5008693;28;20076;-65
2021/08/14 07:48:52;;;;;;;29.05;13.82;;;;;;;19.38;74.14;102198.06;5010808;28;20151;-66
2021/08/14 07:51:17;;;;;;;34.50;15.13;;;;;;;19.40;73.94;102193.50;5030194;28;20049;-65
2021/08/14 07:53:43;;;;;;;32.63;14.40;;;;;;;19.47;73.84;102197.50;5031223;28;20100;-64
2021/08/14 07:56:08;;;;;;;35.45;14.35;;;;;;;19.58;74.03;102188.81;5027412;28;20100;-67
2021/08/14 07:58:33;;;;;;;31.35;13.00;;;;;;;19.77;73.46;102185.84;5031600;28;20064;-64
2021/08/14 08:00:59;;;;;;;28.92;11.70;;;;;;;20.00;72.37;102186.25;5027982;28;20136;-66
2021/08/14 08:03:24;;;;;;;32.83;11.95;;;;;;;20.13;71.70;102181.81;5029663;28;20044;-64
2021/08/14 08:05:50;;;;;;;29.40;11.60;;;;;;;20.18;71.22;102188.72;5004535;28;20534;-67
2021/08/14 08:08:16;;;;;;;32.17;12.77;;;;;;;20.39;70.64;102184.63;5017815;28;20041;-66
2021/08/14 08:10:41;;;;;;;30.70;10.60;;;;;;;20.39;70.91;102183.78;5022858;28;20048;-66
2021/08/14 08:13:06;;;;;;;25.95;9.60;;;;;;;20.34;69.80;102184.06;5025548;28;20021;-66
2021/08/14 08:15:32;;;;;;;29.95;9.98;;;;;;;20.42;69.79;102197.91;5023091;28;20103;-65
2021/08/14 08:17:57;;;;;;;24.13;9.10;;;;;;;20.48;69.73;102185.00;5039038;28;20024;-65
2021/08/14 08:20:22;;;;;;;19.55;7.55;;;;;;;20.65;68.53;102187.44;5016384;28;20041;-65
2021/08/14 08:22:48;;;;;;;27.48;7.22;;;;;;;20.69;68.27;102180.91;5022503;28;20056;-66
2021/08/14 08:25:15;;;;;;;21.65;8.15;;;;;;;20.72;68.64;102185.25;5029675;28;20029;-66
2021/08/14 08:27:43;;;;;;;21.80;8.07;;;;;;;20.71;68.66;102187.06;5029638;28;20567;-66
2021/08/14 08:30:10;;;;;;;26.45;7.82;;;;;;;21.04;67.95;102174.13;5028804;28;20366;-67
2021/08/14 08:32:37;;;;;;;25.75;8.32;;;;;;;21.09;67.73;102177.38;5029182;28;20106;-65
2021/08/14 08:35:04;;;;;;;27.80;8.05;;;;;;;21.12;67.06;102171.75;5036415;28;20040;-64
2021/08/14 08:37:30;;;;;;;20.35;6.88;;;;;;;21.31;65.35;102175.91;5025181;28;20123;-66
2021/08/14 08:39:55;;;;;;;24.08;7.85;;;;;;;21.33;65.89;102173.94;5029242;28;20025;-65
2021/08/14 08:42:21;;;;;;;22.30;6.88;;;;;;;21.36;65.31;102179.13;5029169;28;20355;-66
2021/08/14 08:44:46;;;;;;;20.95;7.07;;;;;;;21.51;64.66;102172.66;5026613;28;20136;-66
2021/08/14 08:47:13;;;;;;;27.52;7.57;;;;;;;21.43;65.16;102178.59;5029129;28;20093;-66
2021/08/14 08:49:49;;;;;;;23.05;6.55;;;;;;;21.56;65.01;102184.03;5029387;28;20116;-65
2021/08/14 08:52:14;;;;;;;20.65;7.60;;;;;;;21.86;64.03;102182.81;5028540;28;20037;-66
2021/08/14 08:54:40;;;;;;;20.80;6.35;;;;;;;21.90;62.94;102180.75;5028445;28;20054;-65
2021/08/14 08:57:05;;;;;;;20.77;6.55;;;;;;;21.88;63.73;102167.38;5011675;28;20120;-63
2021/08/14 08:59:30;;;;;;;25.30;7.35;;;;;;;21.84;64.30;102170.41;5028815;28;20036;-64
2021/08/14 09:01:55;;;;;;;18.85;6.25;;;;;;;21.97;63.04;102171.25;5028355;28;20466;-64
2021/08/14 09:04:32;;;;;;;18.80;6.13;;;;;;;22.51;61.21;102171.88;5029091;28;20033;-66
2021/08/14 09:06:59;;;;;;;18.50;5.50;;;;;;;22.97;58.73;102164.81;5015579;28;20429;-68
2021/08/14 09:09:31;;;;;;;18.27;6.32;;;;;;;22.41;60.84;102186.03;5012879;28;20064;-63
2021/08/14 09:12:05;;;;;;;20.55;6.80;;;;;;;22.35;62.58;102177.50;5028824;28;20021;-64
2021/08/14 09:14:49;;;;;;;22.13;6.10;;;;;;;23.03;58.59;102161.63;5022228;28;20087;-64
2021/08/14 09:17:14;;;;;;;23.98;5.85;;;;;;;23.01;59.00;102167.16;5014775;28;20029;-65
2021/08/14 09:19:40;;;;;;;19.15;5.55;;;;;;;24.50;55.30;102164.41;5029585;28;20391;-63
2021/08/14 09:22:23;;;;;;;20.40;5.68;;;;;;;24.74;54.11;102166.06;5025612;28;20084;-64
2021/08/14 09:24:48;;;;;;;17.17;5.25;;;;;;;24.32;54.34;102171.31;5020542;28;20051;-63
2021/08/14 09:27:17;;;;;;;17.90;4.45;;;;;;;23.46;54.04;102158.31;5021604;28;20025;-64
2021/08/14 09:29:48;;;;;;;13.15;4.65;;;;;;;23.17;56.44;102171.41;5025243;28;20155;-64
2021/08/14 09:32:16;;;;;;;14.27;5.10;;;;;;;24.59;52.04;102179.03;5033318;28;20025;-64
2021/08/14 09:34:49;;;;;;;15.68;4.82;;;;;;;26.20;46.70;102172.47;5027330;28;20367;-65
2021/08/14 09:37:16;;;;;;;12.52;4.88;;;;;;;26.84;45.14;102164.81;5022542;28;20034;-65
2021/08/14 09:40:01;;;;;;;14.88;4.45;;;;;;;25.93;46.96;102174.75;5018906;28;20030;-65
2021/08/14 09:42:28;;;;;;;15.65;4.63;;;;;;;24.71;49.42;102182.56;5029382;28;20025;-64
2021/08/14 09:45:14;;;;;;;17.10;4.93;;;;;;;23.28;53.85;102176.84;5025230;28;20181;-64
2021/08/14 09:47:41;;;;;;;15.23;4.60;;;;;;;22.80;55.58;102172.38;5031500;28;20095;-63
2021/08/14 09:50:07;;;;;;;17.42;4.70;;;;;;;22.75;54.76;102172.72;5021278;28;20460;-65
2021/08/14 09:52:33;;;;;;;13.82;4.50;;;;;;;22.38;56.41;102185.44;5012393;28;20494;-63
2021/08/14 09:54:58;;;;;;;15.35;4.90;;;;;;;22.69;56.58;102189.38;5021323;28;20116;-64
2021/08/14 09:57:24;;;;;;;16.88;4.82;;;;;;;22.61;55.80;102186.41;5031028;28;20033;-65
2021/08/14 09:59:51;;;;;;;14.30;4.72;;;;;;;22.40;56.21;102178.06;5023231;28;20425;-66
2021/08/14 10:02:21;;;;;;;15.25;5.22;;;;;;;22.05;57.15;102174.25;5025871;28;20124;-65
2021/08/14 10:04:48;;;;;;;16.53;5.10;;;;;;;22.38;55.95;102186.28;5023296;28;20029;-65
2021/08/14 10:07:14;;;;;;;14.88;4.70;;;;;;;23.11;54.86;102182.66;5000894;28;20071;-67
2021/08/14 10:09:41;;;;;;;13.45;4.45;;;;;;;23.28;52.58;102174.16;5033997;28;20029;-66
2021/08/14 10:12:07;;;;;;;17.35;5.00;;;;;;;23.36;53.77;102176.25;5035486;28;20480;-64
2021/08/14 10:14:32;;;;;;;12.40;4.07;;;;;;;23.81;50.77;102179.00;5033187;28;20068;-65
2021/08/14 10:16:58;;;;;;;14.30;4.95;;;;;;;23.49;51.49;102178.84;5035089;28;20120;-65
2021/08/14 10:19:24;;;;;;;12.98;5.00;;;;;;;24.19;49.93;102177.75;5035129;28;20063;-63
2021/08/14 10:21:54;;;;;;;16.73;4.82;;;;;;;25.26;47.99;102182.41;5033423;28;20067;-64
2021/08/14 10:24:20;;;;;;;15.55;5.38;;;;;;;25.97;44.41;102168.09;5032694;28;20037;-66
2021/08/14 10:26:46;;;;;;;14.43;4.80;;;;;;;25.27;46.00;102172.41;5035551;28;20030;-65
2021/08/14 10:29:16;;;;;;;15.45;4.93;;;;;;;24.47;48.24;102177.31;5034660;28;20029;-67
2021/08/14 10:31:47;;;;;;;16.10;4.80;;;;;;;23.48;51.60;102183.41;5033001;28;20030;-65
2021/08/14 10:34:12;;;;;;;14.35;4.70;;;;;;;23.02;53.84;102187.81;5027620;28;20109;-65
2021/08/14 10:36:38;;;;;;;14.43;4.63;;;;;;;23.05;54.02;102178.59;5017012;28;20067;-66
2021/08/14 10:39:22;;;;;;;16.45;5.22;;;;;;;23.32;52.32;102164.81;5034268;28;20295;-65
2021/08/14 10:41:50;;;;;;;13.73;4.60;;;;;;;24.23;50.68;102188.34;5033286;28;20021;-63
2021/08/14 10:44:35;;;;;;;14.77;4.90;;;;;;;24.68;46.81;102188.22;5034424;28;20018;-66
2021/08/14 10:47:01;;;;;;;13.20;4.45;;;;;;;25.27;45.36;102178.72;5033714;28;20025;-64
2021/08/14 10:49:32;;;;;;;10.25;3.85;;;;;;;26.21;43.28;102179.59;5034170;28;20026;-65
2021/08/14 10:52:03;;;;;;;10.98;3.90;;;;;;;26.03;44.58;102172.09;5032557;28;20040;-64
2021/08/14 10:54:28;;;;;;;9.48;3.90;;;;;;;26.37;43.32;102170.91;5034275;28;20082;-67
2021/08/14 10:56:55;;;;;;;9.48;4.00;;;;;;;26.57;39.60;102180.78;5032184;28;20104;-64
2021/08/14 10:59:36;;;;;;;10.23;4.13;;;;;;;25.77;41.96;102169.00;5014330;28;20476;-63
2021/08/14 11:02:10;;;;;;;13.50;4.10;;;;;;;24.93;44.98;102178.91;5014281;28;20056;-65
2021/08/14 11:04:41;;;;;;;16.52;4.80;;;;;;;25.84;43.88;102175.59;5031640;28;20088;-63
2021/08/14 11:07:19;;;;;;;12.85;4.35;;;;;;;27.00;41.33;102165.09;5032181;28;20029;-64
2021/08/14 11:09:54;;;;;;;10.27;4.10;;;;;;;27.15;42.15;102169.06;5034106;28;20067;-65
2021/08/14 11:12:42;;;;;;;12.77;4.68;;;;;;;26.55;41.83;102166.50;5033587;28;20143;-65
2021/08/14 11:15:13;;;;;;;11.73;4.45;;;;;;;26.55;41.06;102174.66;5024202;28;20037;-65